createdAt,value
2019-05-06T00:07:07.711Z,5.66
2019-05-06T00:09:35.474Z,5.61
2019-05-06T00:12:23.855Z,5.58
2019-05-06T00:14:54.058Z,5.50
2019-05-06T00:19:57.062Z,5.46
2019-05-06T00:22:25.313Z,5.42
2019-05-06T00:25:14.076Z,5.38
2019-05-06T00:28:00.109Z,5.38
2019-05-06T00:35:35.844Z,5.29
2019-05-06T00:38:24.481Z,5.29
2019-05-06T00:41:10.342Z,5.28
2019-05-06T00:43:56.750Z,5.28
2019-05-06T00:46:24.565Z,5.20
2019-05-06T00:49:11.238Z,5.18
2019-05-06T00:51:39.035Z,5.18
2019-05-06T00:54:25.722Z,5.17
2019-05-06T00:57:13.979Z,5.14
2019-05-06T00:59:41.551Z,5.14
2019-05-06T01:02:28.001Z,5.10
2019-05-06T01:08:03.895Z,5.03
2019-05-06T01:10:38.195Z,5.03
2019-05-06T01:13:24.864Z,5.03
2019-05-06T01:16:11.291Z,5.02
2019-05-06T01:21:14.548Z,5.00
2019-05-06T01:23:43.749Z,4.99
2019-05-06T01:26:30.322Z,4.97
2019-05-06T01:28:58.094Z,4.98
2019-05-06T01:31:39.503Z,4.96
2019-05-06T01:33:55.623Z,4.96
2019-05-06T01:36:24.948Z,4.94
2019-05-06T01:39:13.736Z,4.87
2019-05-06T01:41:59.585Z,4.66
2019-05-06T01:44:46.311Z,4.48
2019-05-06T01:50:20.730Z,4.27
2019-05-06T01:52:49.269Z,4.27
2019-05-06T01:55:35.933Z,4.16
2019-05-06T01:58:05.290Z,4.16
2019-05-06T02:00:34.442Z,4.11
2019-05-06T02:03:21.549Z,4.07
2019-05-06T02:06:07.983Z,4.01
2019-05-06T02:08:36.042Z,3.99
2019-05-06T02:11:24.119Z,3.95
2019-05-06T02:13:53.712Z,3.95
2019-05-06T02:16:21.165Z,3.90
2019-05-06T02:19:07.535Z,3.77
2019-05-06T02:21:54.416Z,3.73
2019-05-06T02:24:40.839Z,3.67
2019-05-06T02:27:08.563Z,3.67
2019-05-06T02:29:54.951Z,3.64
2019-05-06T02:32:41.403Z,3.64
2019-05-06T02:35:28.093Z,3.64
2019-05-06T02:37:55.826Z,3.68
2019-05-06T02:40:24.718Z,3.77
2019-05-06T02:43:13.571Z,3.99
2019-05-06T02:45:43.345Z,3.99
2019-05-06T02:48:29.811Z,4.17
2019-05-06T02:51:16.210Z,4.17
2019-05-06T02:53:44.058Z,4.27
2019-05-06T02:56:33.161Z,4.39
2019-05-06T02:59:18.545Z,4.44
2019-05-06T03:02:04.997Z,4.45
2019-05-06T03:04:33.377Z,4.41
2019-05-06T03:07:03.713Z,4.41
2019-05-06T03:12:29.855Z,4.40
2019-05-06T03:14:47.268Z,4.40
2019-05-06T03:17:33.737Z,4.39
2019-05-06T03:20:20.190Z,4.39
2019-05-06T03:26:05.777Z,4.44
2019-05-06T03:28:29.642Z,4.44
2019-05-06T03:31:17.198Z,4.48
2019-05-06T03:34:03.444Z,4.50
2019-05-06T03:36:40.260Z,4.54
2019-05-06T03:41:37.318Z,4.60
2019-05-06T03:44:26.789Z,4.60
2019-05-06T03:47:13.953Z,4.60
2019-05-06T03:50:04.719Z,4.61
2019-05-06T03:52:34.203Z,4.61
2019-05-06T03:55:03.658Z,4.60
2019-05-06T03:57:33.446Z,4.55
2019-05-06T04:00:20.212Z,4.55
2019-05-06T04:03:06.590Z,4.50
2019-05-06T04:08:26.789Z,4.42
2019-05-06T04:11:13.696Z,4.39
2019-05-06T04:13:43.728Z,4.39
2019-05-06T04:16:30.244Z,4.38
2019-05-06T04:22:12.766Z,4.39
2019-05-06T04:24:59.420Z,4.39
2019-05-06T04:30:37.249Z,4.49
2019-05-06T04:33:26.187Z,4.49
2019-05-06T04:36:13.150Z,4.59
2019-05-06T04:41:14.784Z,4.65
2019-05-06T04:43:43.837Z,4.74
2019-05-06T04:46:30.482Z,4.81
2019-05-06T04:52:03.766Z,4.86
2019-05-06T04:57:36.722Z,4.97
2019-05-06T05:00:04.630Z,5.03
2019-05-06T05:02:51.032Z,5.08
2019-05-06T05:05:18.836Z,5.14
2019-05-06T05:08:05.260Z,5.27
2019-05-06T05:13:47.792Z,5.47
2019-05-06T05:16:34.167Z,5.47
2019-05-06T05:19:22.915Z,5.65
2019-05-06T05:21:49.860Z,5.69
2019-05-06T05:24:36.335Z,5.72
2019-05-06T05:27:04.019Z,5.76
2019-05-06T05:29:32.534Z,5.78
2019-05-06T05:32:02.223Z,5.78
2019-05-06T05:34:38.091Z,5.79
2019-05-06T05:37:05.353Z,5.80
2019-05-06T05:39:33.434Z,5.80
2019-05-06T05:42:12.361Z,5.83
2019-05-06T05:44:43.069Z,5.83
2019-05-06T05:47:12.971Z,5.83
2019-05-06T05:50:03.091Z,5.86
2019-05-06T05:52:32.904Z,5.88
2019-05-06T05:55:02.572Z,5.88
2019-05-06T05:57:32.395Z,5.93
2019-05-06T06:00:00.722Z,5.94
2019-05-06T06:02:28.389Z,5.95
2019-05-06T06:04:57.663Z,5.98
2019-05-06T06:07:25.648Z,5.99
2019-05-06T06:10:09.784Z,6.02
2019-05-06T06:12:42.953Z,6.06
2019-05-06T06:15:18.512Z,6.09
2019-05-06T06:18:05.276Z,6.14
2019-05-06T06:20:50.058Z,6.18
2019-05-06T06:23:26.662Z,6.18
2019-05-06T06:25:55.960Z,6.26
2019-05-06T06:28:23.558Z,6.35
2019-05-06T06:33:23.930Z,6.60
2019-05-06T06:36:12.257Z,6.60
2019-05-06T06:38:58.781Z,6.68
2019-05-06T06:41:45.214Z,6.75
2019-05-06T06:47:22.448Z,6.85
2019-05-06T06:49:53.293Z,6.89
2019-05-06T06:52:38.986Z,6.94
2019-05-06T06:55:06.752Z,6.93
2019-05-06T06:57:53.229Z,6.97
2019-05-06T07:00:39.572Z,7.01
2019-05-06T07:03:26.027Z,7.01
2019-05-06T07:08:57.752Z,7.02
2019-05-06T07:11:27.164Z,7.04
2019-05-06T07:14:13.786Z,7.06
2019-05-06T07:16:43.004Z,7.08
2019-05-06T07:22:06.666Z,7.12
2019-05-06T07:24:47.326Z,7.18
2019-05-06T07:27:22.798Z,7.21
2019-05-06T07:29:52.271Z,7.36
2019-05-06T07:32:38.628Z,7.36
2019-05-06T07:35:06.483Z,7.44
2019-05-06T07:37:54.443Z,7.44
2019-05-06T07:40:22.208Z,7.67
2019-05-06T07:43:08.632Z,7.85
2019-05-06T07:45:43.905Z,7.98
2019-05-06T07:48:13.856Z,7.98
2019-05-06T07:50:43.792Z,8.30
2019-05-06T07:53:13.158Z,8.41
2019-05-06T07:55:42.393Z,8.52
2019-05-06T07:58:13.956Z,8.52
2019-05-06T08:00:42.363Z,8.75
2019-05-06T08:03:10.336Z,8.89
2019-05-06T08:05:51.574Z,8.89
2019-05-06T08:08:07.228Z,9.06
2019-05-06T08:10:35.215Z,9.29
2019-05-06T08:13:03.073Z,9.29
2019-05-06T08:15:32.577Z,9.50
2019-05-06T08:18:03.081Z,9.50
2019-05-06T08:20:38.966Z,9.85
2019-05-06T08:23:37.938Z,9.85
2019-05-06T08:26:12.008Z,10.09
2019-05-06T08:28:41.008Z,10.30
2019-05-06T08:31:04.817Z,10.40
2019-05-06T08:33:32.802Z,10.51
2019-05-06T08:36:11.375Z,10.54
2019-05-06T08:38:59.710Z,10.60
2019-05-06T08:41:34.989Z,10.75
2019-05-06T08:44:02.900Z,10.82
2019-05-06T08:46:32.666Z,10.82
2019-05-06T08:49:05.070Z,10.86
2019-05-06T08:51:53.064Z,10.86
2019-05-06T08:54:32.455Z,10.78
2019-05-06T08:57:03.163Z,10.63
2019-05-06T08:59:32.101Z,10.54
2019-05-06T09:02:04.374Z,10.31
2019-05-06T09:04:32.243Z,10.33
2019-05-06T09:07:02.953Z,10.33
2019-05-06T09:09:32.581Z,10.47
2019-05-06T09:12:00.006Z,11.02
2019-05-06T09:14:32.426Z,11.02
2019-05-06T09:16:59.913Z,11.45
2019-05-06T09:19:33.257Z,11.37
2019-05-06T09:22:02.552Z,11.09
2019-05-06T09:24:32.124Z,10.88
2019-05-06T09:27:12.377Z,11.01
2019-05-06T09:29:54.824Z,11.41
2019-05-06T09:32:42.882Z,11.41
2019-05-06T09:35:13.028Z,11.91
2019-05-06T09:37:42.981Z,11.91
2019-05-06T09:40:10.018Z,12.06
2019-05-06T09:42:40.178Z,12.11
2019-05-06T09:45:15.466Z,12.15
2019-05-06T09:48:08.108Z,12.15
2019-05-06T09:50:36.195Z,12.22
2019-05-06T09:53:03.797Z,12.22
2019-05-06T09:55:49.373Z,12.13
2019-05-06T09:58:17.871Z,12.09
2019-05-06T10:00:48.669Z,12.55
2019-05-06T10:03:19.514Z,13.21
2019-05-06T10:05:47.057Z,13.70
2019-05-06T10:08:14.767Z,14.04
2019-05-06T10:10:56.102Z,14.25
2019-05-06T10:13:12.862Z,14.63
2019-05-06T10:15:42.638Z,14.63
2019-05-06T10:18:13.084Z,15.56
2019-05-06T10:20:42.295Z,16.17
2019-05-06T10:23:09.372Z,16.64
2019-05-06T10:25:49.350Z,16.35
2019-05-06T10:28:13.957Z,16.00
2019-05-06T10:30:43.836Z,15.41
2019-05-06T10:33:15.359Z,15.29
2019-05-06T10:35:43.352Z,15.29
2019-05-06T10:38:12.365Z,16.59
2019-05-06T10:40:57.326Z,16.59
2019-05-06T10:43:12.905Z,17.33
2019-05-06T10:45:42.552Z,17.95
2019-05-06T10:48:10.184Z,18.21
2019-05-06T10:50:43.563Z,17.89
2019-05-06T10:53:19.382Z,17.85
2019-05-06T10:55:54.990Z,17.85
2019-05-06T10:58:22.891Z,17.23
2019-05-06T11:00:56.953Z,16.44
2019-05-06T11:03:28.105Z,16.73
2019-05-06T11:05:59.514Z,17.57
2019-05-06T11:08:27.935Z,17.57
2019-05-06T11:10:55.886Z,17.91
2019-05-06T11:13:28.081Z,18.19
2019-05-06T11:15:58.400Z,17.55
2019-05-06T11:18:33.556Z,17.55
2019-05-06T11:21:04.071Z,16.65
2019-05-06T11:23:55.698Z,15.14
2019-05-06T11:26:14.032Z,14.72
2019-05-06T11:29:05.212Z,14.72
2019-05-06T11:31:55.818Z,16.64
2019-05-06T11:34:37.175Z,17.37
2019-05-06T11:37:47.162Z,17.35
2019-05-06T11:40:16.513Z,17.35
2019-05-06T11:42:45.324Z,16.51
2019-05-06T11:45:16.439Z,16.02
2019-05-06T11:47:56.216Z,15.54
2019-05-06T11:50:24.603Z,15.08
2019-05-06T11:52:57.381Z,14.77
2019-05-06T11:55:32.709Z,14.77
2019-05-06T11:58:04.554Z,14.62
2019-05-06T12:00:44.267Z,14.56
2019-05-06T12:03:12.770Z,14.53
2019-05-06T12:05:43.483Z,14.20
2019-05-06T12:08:15.599Z,14.20
2019-05-06T12:10:42.331Z,13.60
2019-05-06T12:13:28.897Z,13.41
2019-05-06T12:15:56.480Z,13.09
2019-05-06T12:18:26.833Z,13.09
2019-05-06T12:20:54.387Z,12.69
2019-05-06T12:23:22.468Z,12.04
2019-05-06T12:25:52.777Z,12.04
2019-05-06T12:28:19.857Z,11.62
2019-05-06T12:30:47.532Z,11.45
2019-05-06T12:33:37.531Z,11.35
2019-05-06T12:36:12.839Z,11.31
2019-05-06T12:39:06.346Z,11.31
2019-05-06T12:41:29.182Z,11.31
2019-05-06T12:43:59.322Z,11.34
2019-05-06T12:46:33.205Z,11.36
2019-05-06T12:49:03.264Z,11.36
2019-05-06T12:51:32.318Z,11.46
2019-05-06T12:53:59.998Z,11.63
2019-05-06T12:56:29.679Z,11.73
2019-05-06T12:58:57.749Z,11.64
2019-05-06T13:01:25.335Z,11.33
2019-05-06T13:03:55.208Z,11.33
2019-05-06T13:06:26.395Z,10.39
2019-05-06T13:09:01.142Z,10.39
2019-05-06T13:11:23.167Z,9.75
2019-05-06T13:13:59.754Z,9.57
2019-05-06T13:16:22.824Z,9.49
2019-05-06T13:18:52.556Z,9.44
2019-05-06T13:21:23.034Z,9.44
2019-05-06T13:23:57.610Z,9.43
2019-05-06T13:26:25.166Z,9.44
2019-05-06T13:29:09.469Z,9.44
2019-05-06T13:31:37.215Z,9.44
2019-05-06T13:34:10.514Z,9.51
2019-05-06T13:36:38.114Z,9.51
2019-05-06T13:39:14.414Z,9.66
2019-05-06T13:41:38.516Z,9.78
2019-05-06T13:44:14.996Z,9.91
2019-05-06T13:46:47.651Z,9.91
2019-05-06T13:49:33.232Z,10.57
2019-05-06T13:52:04.451Z,11.47
2019-05-06T13:54:36.273Z,12.88
2019-05-06T13:57:04.455Z,12.88
2019-05-06T13:59:35.262Z,14.07
2019-05-06T14:02:26.027Z,15.68
2019-05-06T14:04:57.000Z,16.70
2019-05-06T14:07:24.670Z,17.57
2019-05-06T14:09:56.365Z,17.24
2019-05-06T14:12:26.047Z,16.85
2019-05-06T14:15:27.284Z,16.85
2019-05-06T14:17:43.029Z,16.90
2019-05-06T14:20:02.658Z,16.80
2019-05-06T14:22:32.534Z,17.02
2019-05-06T14:25:28.184Z,16.84
2019-05-06T14:28:03.969Z,16.84
2019-05-06T14:30:56.916Z,16.25
2019-05-06T14:33:24.558Z,17.32
2019-05-06T14:35:52.808Z,17.32
2019-05-06T14:38:24.761Z,17.44
2019-05-06T14:41:21.188Z,16.85
2019-05-06T14:43:48.771Z,16.10
2019-05-06T14:46:16.989Z,16.10
2019-05-06T14:48:44.728Z,15.09
2019-05-06T14:51:13.963Z,15.09
2019-05-06T14:53:44.978Z,14.47
2019-05-06T14:56:42.621Z,14.09
2019-05-06T14:59:17.503Z,13.73
2019-05-06T15:01:46.378Z,13.48
2019-05-06T15:04:14.059Z,13.26
2019-05-06T15:06:49.067Z,13.26
2019-05-06T15:09:14.251Z,14.82
2019-05-06T15:11:43.557Z,14.71
2019-05-06T15:14:13.092Z,14.71
2019-05-06T15:16:45.073Z,15.05
2019-05-06T15:19:13.024Z,15.82
2019-05-06T15:21:42.914Z,15.82
2019-05-06T15:24:10.385Z,15.59
2019-05-06T15:26:38.117Z,15.60
2019-05-06T15:29:06.283Z,15.40
2019-05-06T15:31:50.141Z,14.93
2019-05-06T15:34:23.356Z,14.37
2019-05-06T15:36:57.743Z,13.52
2019-05-06T15:39:25.675Z,13.52
2019-05-06T15:41:53.295Z,13.19
2019-05-06T15:44:23.140Z,12.75
2019-05-06T15:46:52.513Z,12.63
2019-05-06T15:49:22.100Z,12.51
2019-05-06T15:51:53.036Z,12.50
2019-05-06T15:54:22.717Z,12.50
2019-05-06T15:56:53.020Z,12.50
2019-05-06T15:59:20.068Z,12.44
2019-05-06T16:01:48.171Z,12.30
2019-05-06T16:04:18.850Z,12.14
2019-05-06T16:06:46.710Z,11.97
2019-05-06T16:09:23.309Z,11.81
2019-05-06T16:11:49.164Z,11.67
2019-05-06T16:14:17.076Z,11.56
2019-05-06T16:16:44.747Z,11.41
2019-05-06T16:19:13.132Z,11.41
2019-05-06T16:21:45.173Z,11.37
2019-05-06T16:24:20.047Z,11.29
2019-05-06T16:26:47.952Z,11.19
2019-05-06T16:29:17.729Z,11.19
2019-05-06T16:31:46.764Z,11.02
2019-05-06T16:34:14.811Z,10.92
2019-05-06T16:36:43.195Z,10.77
2019-05-06T16:39:15.250Z,10.77
2019-05-06T16:41:44.730Z,10.60
2019-05-06T16:44:15.636Z,10.42
2019-05-06T16:46:46.566Z,10.15
2019-05-06T16:49:14.327Z,10.08
2019-05-06T16:52:02.591Z,10.08
2019-05-06T16:54:31.555Z,10.03
2019-05-06T16:57:09.249Z,10.00
2019-05-06T16:59:36.892Z,10.00
2019-05-06T17:02:14.103Z,9.90
2019-05-06T17:05:15.089Z,9.90
2019-05-06T17:07:42.231Z,9.78
2019-05-06T17:10:11.865Z,9.74
2019-05-06T17:12:42.502Z,9.74
2019-05-06T17:15:14.752Z,9.63
2019-05-06T17:17:46.762Z,9.63
2019-05-06T17:20:12.276Z,9.51
2019-05-06T17:22:49.278Z,9.46
2019-05-06T17:25:16.880Z,9.46
2019-05-06T17:27:49.621Z,9.29
2019-05-06T17:30:40.138Z,9.20
2019-05-06T17:33:28.935Z,9.12
2019-05-06T17:35:56.778Z,9.12
2019-05-06T17:38:43.262Z,9.04
2019-05-06T17:41:24.823Z,8.95
2019-05-06T17:43:59.023Z,8.68
2019-05-06T17:49:26.923Z,8.53
2019-05-06T17:52:05.303Z,8.41
2019-05-06T17:55:04.061Z,8.35
2019-05-06T17:57:22.448Z,8.26
2019-05-06T18:05:59.292Z,8.16
2019-05-06T18:08:38.609Z,8.16
2019-05-06T18:11:17.612Z,8.13
2019-05-06T18:13:35.337Z,8.14
2019-05-06T18:16:22.351Z,8.14
2019-05-06T18:21:42.523Z,8.18
2019-05-06T18:24:12.735Z,8.19
2019-05-06T18:26:42.162Z,8.19
2019-05-06T18:31:43.228Z,8.15
2019-05-06T18:34:29.650Z,8.14
2019-05-06T18:39:50.464Z,8.14
2019-05-06T18:42:20.578Z,8.14
2019-05-06T18:44:54.882Z,8.10
2019-05-06T18:47:25.316Z,8.10
2019-05-06T18:50:12.508Z,7.99
2019-05-06T18:56:03.399Z,7.94
2019-05-06T19:04:14.218Z,7.82
2019-05-06T19:07:12.201Z,7.76
2019-05-06T19:09:52.199Z,7.70
2019-05-06T19:12:52.519Z,7.70
2019-05-06T19:18:04.264Z,7.59
2019-05-06T19:23:37.541Z,7.51
2019-05-06T19:26:36.122Z,7.47
2019-05-06T19:29:24.686Z,7.47
2019-05-06T19:31:42.537Z,7.45
2019-05-06T19:34:29.483Z,7.44
2019-05-06T19:36:57.163Z,7.42
2019-05-06T19:39:43.572Z,7.44
2019-05-06T19:42:43.663Z,7.44
2019-05-06T19:45:18.097Z,7.43
2019-05-06T19:47:45.906Z,7.42
2019-05-06T19:50:33.041Z,7.41
2019-05-06T19:56:08.693Z,7.43
2019-05-06T19:58:45.148Z,7.44
2019-05-06T20:01:34.107Z,7.50
2019-05-06T20:04:02.623Z,7.50
2019-05-06T20:06:52.314Z,7.54
2019-05-06T20:09:52.182Z,7.57
2019-05-06T20:12:26.243Z,7.62
2019-05-06T20:17:47.169Z,7.66
2019-05-06T20:20:14.777Z,7.69
2019-05-06T20:22:42.586Z,7.69
2019-05-06T20:25:30.672Z,7.73
2019-05-06T20:31:03.861Z,7.75
2019-05-06T20:33:32.656Z,7.72
2019-05-06T20:36:19.537Z,7.65
2019-05-06T20:38:47.160Z,7.65
2019-05-06T20:41:35.912Z,7.63
2019-05-06T20:44:17.649Z,7.66
2019-05-06T20:46:53.970Z,7.66
2019-05-06T20:49:40.400Z,7.61
2019-05-06T20:55:15.901Z,7.56
2019-05-06T20:58:02.743Z,7.56
2019-05-06T21:00:43.094Z,7.53
2019-05-06T21:03:19.038Z,7.51
2019-05-06T21:05:47.238Z,7.50
2019-05-06T21:08:33.701Z,7.50
2019-05-06T21:11:01.409Z,7.52
2019-05-06T21:13:47.851Z,7.54
2019-05-06T21:16:15.580Z,7.57
2019-05-06T21:19:03.159Z,7.61
2019-05-06T21:22:02.465Z,7.65
2019-05-06T21:24:38.155Z,7.68
2019-05-06T21:27:24.526Z,7.77
2019-05-06T21:30:13.086Z,7.80
2019-05-06T21:35:48.638Z,7.87
2019-05-06T21:38:15.304Z,7.87
2019-05-06T21:41:02.172Z,7.90
2019-05-06T21:43:45.880Z,7.95
2019-05-06T21:46:20.572Z,7.97
2019-05-06T21:48:48.253Z,7.97
2019-05-06T21:51:23.079Z,8.02
2019-05-06T21:54:09.504Z,8.04
2019-05-06T21:56:55.891Z,8.04
2019-05-06T21:59:42.772Z,8.06
2019-05-06T22:02:29.271Z,8.09
2019-05-06T22:05:15.641Z,8.09
2019-05-06T22:08:02.140Z,8.08
2019-05-06T22:13:18.108Z,7.87
2019-05-06T22:18:32.369Z,7.60
2019-05-06T22:21:22.513Z,7.46
2019-05-06T22:24:04.374Z,7.46
2019-05-06T22:26:48.211Z,7.39
2019-05-06T22:29:15.911Z,7.39
2019-05-06T22:34:16.602Z,7.39
2019-05-06T22:39:31.724Z,7.39
2019-05-06T22:42:18.824Z,7.39
2019-05-06T22:44:46.569Z,7.38
2019-05-06T22:47:33.060Z,7.38
2019-05-06T22:50:02.167Z,7.39
2019-05-06T22:52:32.515Z,7.41
2019-05-06T22:55:03.551Z,7.43
2019-05-06T22:57:28.965Z,7.45
2019-05-06T22:59:56.609Z,7.50
2019-05-06T23:02:43.348Z,7.52
2019-05-06T23:05:12.196Z,7.52
2019-05-06T23:07:42.314Z,7.53
2019-05-06T23:10:10.299Z,7.54
2019-05-06T23:12:38.066Z,7.57
2019-05-06T23:15:24.773Z,7.57
2019-05-06T23:18:11.153Z,7.58
2019-05-06T23:23:44.298Z,7.58
2019-05-06T23:26:22.637Z,7.57
2019-05-06T23:28:49.838Z,7.57
2019-05-06T23:31:17.896Z,7.58
2019-05-06T23:33:45.593Z,7.59
2019-05-06T23:36:32.009Z,7.60
2019-05-06T23:39:01.408Z,7.61
2019-05-06T23:41:29.139Z,7.62
2019-05-06T23:44:15.505Z,7.65
2019-05-06T23:47:02.136Z,7.67
2019-05-06T23:49:42.235Z,7.67
2019-05-06T23:51:59.216Z,7.67
2019-05-06T23:54:26.980Z,7.67
2019-05-06T23:57:13.806Z,7.66
